Time;durP1;ratioP1;P1;durP2;ratioP2;P2;SDS_P1;SDS_P2;PMS_P1;PMS_P2;Temp;Humidity;BMP_temperature;BMP_pressure;BME280_temperature;BME280_humidity;BME280_pressure;Samples;Min_cycle;Max_cycle;Signal;HPM_P1;HPM_P2
2022/05/08 00:00:22;;;;;;;6.13;5.13;;;22.40;47.00;;;;;;5140651;27;20019;-44
2022/05/08 00:02:50;;;;;;;6.18;5.07;;;22.40;47.10;;;;;;5140913;27;20472;-41
2022/05/08 00:05:18;;;;;;;6.18;5.25;;;22.30;47.00;;;;;;5140906;27;20046;-43
2022/05/08 00:07:44;;;;;;;6.22;5.03;;;22.40;47.10;;;;;;5140743;27;20008;-46
2022/05/08 00:10:10;;;;;;;6.53;5.40;;;22.40;47.10;;;;;;5140475;27;20012;-43
2022/05/08 00:12:36;;;;;;;6.78;5.03;;;22.40;47.00;;;;;;5142071;27;20015;-42
2022/05/08 00:15:03;;;;;;;5.90;4.97;;;22.40;47.00;;;;;;5142939;27;20075;-42
2022/05/08 00:17:34;;;;;;;6.78;5.18;;;22.30;46.90;;;;;;5142909;27;20015;-43
2022/05/08 00:20:03;;;;;;;6.10;5.13;;;22.30;46.90;;;;;;5141928;27;20015;-40
2022/05/08 00:22:29;;;;;;;5.85;4.90;;;22.40;47.00;;;;;;5141772;27;20035;-41
2022/05/08 00:24:56;;;;;;;7.07;5.18;;;22.40;46.90;;;;;;5142048;27;20011;-41
2022/05/08 00:27:23;;;;;;;5.45;4.88;;;22.30;47.00;;;;;;5142755;27;20023;-41
2022/05/08 00:29:49;;;;;;;6.03;4.75;;;22.30;46.90;;;;;;5143029;27;20019;-40
2022/05/08 00:32:16;;;;;;;5.57;4.80;;;22.30;46.90;;;;;;5142472;27;20492;-39
2022/05/08 00:34:42;;;;;;;6.55;4.60;;;22.30;46.90;;;;;;5141939;27;20029;-43
2022/05/08 00:37:10;;;;;;;5.70;5.10;;;22.30;46.90;;;;;;5143179;27;20052;-44
2022/05/08 00:39:36;;;;;;;7.32;4.78;;;22.30;46.90;;;;;;5143224;27;20102;-41
2022/05/08 00:42:04;;;;;;;6.05;4.88;;;22.30;46.90;;;;;;5143620;27;20015;-41
2022/05/08 00:44:30;;;;;;;4.80;4.28;;;22.30;46.90;;;;;;5142371;27;20054;-44
2022/05/08 00:46:56;;;;;;;6.15;4.68;;;22.30;47.00;;;;;;5140219;27;20027;-42
2022/05/08 00:49:21;;;;;;;6.15;4.60;;;22.20;46.80;;;;;;5139211;27;20019;-41
2022/05/08 00:51:49;;;;;;;5.25;4.55;;;22.30;46.90;;;;;;5140163;27;20016;-43
2022/05/08 00:54:14;;;;;;;4.82;4.32;;;22.30;46.90;;;;;;5141898;27;20064;-40
2022/05/08 00:56:40;;;;;;;5.90;4.60;;;22.30;46.90;;;;;;5141406;27;20457;-44
2022/05/08 00:59:06;;;;;;;4.72;4.25;;;22.20;46.80;;;;;;5141793;27;20038;-40
2022/05/08 01:01:32;;;;;;;5.68;4.28;;;22.20;46.80;;;;;;5140581;27;20558;-41
2022/05/08 01:03:58;;;;;;;4.53;3.95;;;22.20;46.90;;;;;;5139876;27;20012;-39
2022/05/08 01:06:24;;;;;;;5.53;4.50;;;22.20;46.80;;;;;;5139820;27;20577;-41
2022/05/08 01:08:50;;;;;;;5.78;4.28;;;22.20;46.80;;;;;;5139286;27;20487;-40
2022/05/08 01:11:16;;;;;;;6.63;4.93;;;22.20;46.70;;;;;;5140082;27;20015;-42
2022/05/08 01:13:43;;;;;;;5.00;4.25;;;22.20;47.00;;;;;;5139723;27;20038;-41
2022/05/08 01:16:11;;;;;;;4.93;4.32;;;22.20;46.80;;;;;;5140885;27;20026;-40
2022/05/08 01:18:38;;;;;;;5.85;4.13;;;22.20;46.80;;;;;;5140642;27;20022;-40
2022/05/08 01:21:04;;;;;;;4.28;3.88;;;22.20;46.70;;;;;;5141028;27;20047;-42
2022/05/08 01:23:30;;;;;;;4.85;4.20;;;22.20;46.70;;;;;;5141618;27;20515;-44
2022/05/08 01:25:56;;;;;;;5.95;4.07;;;22.20;46.70;;;;;;5141758;27;20019;-42
2022/05/08 01:28:22;;;;;;;4.53;3.97;;;22.20;46.70;;;;;;5141564;27;20007;-41
2022/05/08 01:30:50;;;;;;;4.45;4.03;;;22.20;46.60;;;;;;5141329;27;20003;-40
2022/05/08 01:33:16;;;;;;;4.70;4.20;;;22.20;46.60;;;;;;5141715;27;20007;-40
2022/05/08 01:35:42;;;;;;;4.40;3.97;;;22.20;46.60;;;;;;5140703;27;20018;-42
2022/05/08 01:38:08;;;;;;;4.85;3.90;;;22.20;46.70;;;;;;5140166;27;20028;-44
2022/05/08 01:40:35;;;;;;;4.30;3.65;;;22.20;46.70;;;;;;5139852;27;20358;-40
2022/05/08 01:43:01;;;;;;;4.15;3.60;;;22.20;46.60;;;;;;5139825;27;20019;-43
2022/05/08 01:45:28;;;;;;;4.88;4.10;;;22.20;46.60;;;;;;5140526;27;20035;-40
2022/05/08 01:50:38;;;;;;;4.35;3.40;;;22.10;46.60;;;;;;5140531;27;20030;-40
2022/05/08 01:53:04;;;;;;;4.72;3.90;;;22.10;46.60;;;;;;5139871;27;20467;-41
2022/05/08 01:55:30;;;;;;;4.32;3.80;;;22.10;46.60;;;;;;5138914;27;20024;-42
2022/05/08 01:57:56;;;;;;;6.07;4.47;;;22.10;46.50;;;;;;5140656;27;20026;-40
2022/05/08 02:00:22;;;;;;;6.18;3.85;;;22.10;46.50;;;;;;5137927;27;20023;-41
2022/05/08 02:02:48;;;;;;;4.88;3.47;;;22.10;46.50;;;;;;5139292;27;20051;-40
2022/05/08 02:05:18;;;;;;;5.80;4.35;;;22.10;46.50;;;;;;5139956;27;20089;-40
2022/05/08 02:07:45;;;;;;;;;;;22.10;46.50;;;;;;5140523;27;20026;-42
2022/05/08 02:10:12;;;;;;;4.15;3.70;;;22.20;46.50;;;;;;5139870;27;19903;-45
2022/05/08 02:12:38;;;;;;;5.10;3.85;;;22.10;46.50;;;;;;5139479;27;20007;-43
2022/05/08 02:15:06;;;;;;;5.35;4.05;;;22.10;46.50;;;;;;5143597;27;20079;-48
2022/05/08 02:17:33;;;;;;;4.35;3.50;;;22.10;46.40;;;;;;5143668;27;20074;-43
2022/05/08 02:19:59;;;;;;;4.25;3.70;;;22.10;46.40;;;;;;5140782;27;20046;-43
2022/05/08 02:22:25;;;;;;;4.28;3.70;;;22.10;46.40;;;;;;5139571;27;20095;-44
2022/05/08 02:24:51;;;;;;;5.78;3.85;;;22.10;46.40;;;;;;5138797;27;20016;-41
2022/05/08 02:27:17;;;;;;;4.82;3.78;;;22.10;46.40;;;;;;5138685;27;20027;-41
2022/05/08 02:29:48;;;;;;;4.93;3.90;;;22.10;46.30;;;;;;5135581;27;20012;-43
2022/05/08 02:32:14;;;;;;;4.55;3.42;;;22.10;46.30;;;;;;5134816;27;20011;-43
2022/05/08 02:34:40;;;;;;;4.65;3.35;;;22.10;46.30;;;;;;5134786;27;20015;-43
2022/05/08 02:37:07;;;;;;;3.95;3.42;;;22.10;46.40;;;;;;5134683;27;20092;-43
2022/05/08 02:39:32;;;;;;;4.82;3.67;;;22.10;46.30;;;;;;5135154;27;20025;-43
2022/05/08 02:41:59;;;;;;;4.22;3.40;;;22.10;46.30;;;;;;5135607;27;20019;-43
2022/05/08 02:44:25;;;;;;;3.78;3.30;;;22.00;46.20;;;;;;5137851;27;20023;-45
2022/05/08 02:46:52;;;;;;;3.70;3.30;;;22.10;46.20;;;;;;5138367;27;20065;-45
2022/05/08 02:49:19;;;;;;;3.50;3.20;;;22.10;46.30;;;;;;5138957;27;20015;-39
2022/05/08 02:51:45;;;;;;;3.80;3.20;;;22.10;46.20;;;;;;5138382;27;20080;-40
2022/05/08 02:54:12;;;;;;;3.70;3.30;;;22.10;46.20;;;;;;5138430;27;20015;-41
2022/05/08 02:59:25;;;;;;;4.68;3.30;;;22.10;46.10;;;;;;5136861;27;20038;-40
2022/05/08 03:01:51;;;;;;;3.97;3.58;;;22.10;46.10;;;;;;5137736;27;20027;-40
2022/05/08 03:04:18;;;;;;;3.88;3.17;;;22.10;46.00;;;;;;5137808;27;20393;-40
2022/05/08 03:06:45;;;;;;;3.85;3.00;;;22.00;46.00;;;;;;5137229;27;20076;-41
2022/05/08 03:09:12;;;;;;;4.15;3.20;;;22.00;45.90;;;;;;5137594;27;20045;-40
2022/05/08 03:11:40;;;;;;;3.33;2.70;;;22.00;45.90;;;;;;5137322;27;20043;-41
2022/05/08 03:14:06;;;;;;;6.35;3.63;;;22.10;45.90;;;;;;5137777;27;20012;-40
2022/05/08 03:16:33;;;;;;;5.22;3.28;;;22.00;45.90;;;;;;5137874;27;20019;-39
2022/05/08 03:19:00;;;;;;;5.10;3.25;;;22.00;45.80;;;;;;5137992;27;20027;-39
2022/05/08 03:21:26;;;;;;;3.10;2.80;;;22.00;45.80;;;;;;5136847;28;20139;-42
2022/05/08 03:23:53;;;;;;;3.53;3.22;;;22.00;45.70;;;;;;5138351;28;20076;-39
2022/05/08 03:26:19;;;;;;;4.53;3.33;;;22.00;45.70;;;;;;5138427;28;20046;-40
2022/05/08 03:28:46;;;;;;;4.75;3.25;;;22.00;45.70;;;;;;5136473;28;20377;-39
2022/05/08 03:31:12;;;;;;;3.90;3.25;;;22.00;45.70;;;;;;5135723;27;20064;-39
2022/05/08 03:33:38;;;;;;;3.95;3.15;;;22.00;45.60;;;;;;5134962;28;20477;-39
2022/05/08 03:36:05;;;;;;;4.57;3.10;;;22.00;45.50;;;;;;5133820;28;20016;-39
2022/05/08 03:38:33;;;;;;;4.38;3.28;;;22.00;45.50;;;;;;5135661;27;20030;-39
2022/05/08 03:40:59;;;;;;;4.40;3.05;;;22.00;45.40;;;;;;5135744;27;20015;-40
2022/05/08 03:43:25;;;;;;;5.20;3.17;;;21.90;45.40;;;;;;5137085;28;20019;-41
2022/05/08 03:45:51;;;;;;;3.25;2.60;;;22.00;45.40;;;;;;5140090;27;20030;-41
2022/05/08 03:48:18;;;;;;;4.55;3.00;;;22.00;45.40;;;;;;5139883;28;20011;-39
2022/05/08 03:50:44;;;;;;;3.95;3.00;;;22.00;45.30;;;;;;5140321;27;20023;-38
2022/05/08 03:53:10;;;;;;;4.85;2.97;;;22.00;45.20;;;;;;5140349;27;20243;-42
2022/05/08 03:55:37;;;;;;;3.08;2.60;;;22.00;45.20;;;;;;5139303;28;20024;-39
2022/05/08 03:58:03;;;;;;;4.75;2.80;;;22.00;45.10;;;;;;5139591;27;20018;-41
2022/05/08 04:00:30;;;;;;;3.45;2.80;;;22.00;45.10;;;;;;5138310;28;20092;-40
2022/05/08 04:02:59;;;;;;;4.47;2.70;;;22.00;45.10;;;;;;5140712;28;20015;-40
2022/05/08 04:05:25;;;;;;;4.05;2.95;;;22.00;45.00;;;;;;5141366;27;20065;-38
2022/05/08 04:07:52;;;;;;;4.10;2.80;;;22.00;45.00;;;;;;5141683;28;20054;-39
2022/05/08 04:10:18;;;;;;;4.13;2.80;;;22.00;45.00;;;;;;5142392;28;20047;-40
2022/05/08 04:12:46;;;;;;;3.50;2.65;;;21.90;44.90;;;;;;5142361;27;20468;-39
2022/05/08 04:17:56;;;;;;;5.05;3.20;;;21.90;44.90;;;;;;5142264;28;20027;-40
2022/05/08 04:20:22;;;;;;;3.47;2.60;;;21.90;44.90;;;;;;5140558;28;19999;-40
2022/05/08 04:25:32;;;;;;;3.55;2.42;;;21.90;44.80;;;;;;5143521;27;20096;-41
2022/05/08 04:27:59;;;;;;;3.60;3.05;;;22.00;44.80;;;;;;5144207;27;20040;-41
2022/05/08 04:30:24;;;;;;;3.35;2.80;;;21.90;44.80;;;;;;5143785;27;20016;-39
2022/05/08 04:32:51;;;;;;;3.50;2.80;;;21.90;44.80;;;;;;5146064;27;20007;-41
2022/05/08 04:35:17;;;;;;;4.20;2.72;;;21.90;44.70;;;;;;5145825;27;20094;-40
2022/05/08 04:37:44;;;;;;;3.80;2.60;;;21.90;44.80;;;;;;5145926;27;20011;-42
2022/05/08 04:40:11;;;;;;;3.63;2.70;;;21.90;44.70;;;;;;5146750;27;20131;-40
2022/05/08 04:42:37;;;;;;;3.67;2.78;;;21.90;44.70;;;;;;5143672;27;20016;-39
2022/05/08 04:45:04;;;;;;;3.10;2.55;;;21.90;44.60;;;;;;5140643;27;20033;-39
2022/05/08 04:47:29;;;;;;;3.30;2.63;;;21.90;44.60;;;;;;5122326;27;20027;-39
2022/05/08 04:49:55;;;;;;;4.43;2.90;;;21.90;44.70;;;;;;5141790;27;20068;-39
2022/05/08 04:52:21;;;;;;;3.33;2.75;;;21.90;44.60;;;;;;5140360;27;20586;-40
2022/05/08 04:54:47;;;;;;;3.10;2.47;;;21.90;44.60;;;;;;5139831;27;20015;-39
2022/05/08 04:57:13;;;;;;;4.25;2.90;;;21.90;44.50;;;;;;5141108;27;20458;-42
2022/05/08 04:59:39;;;;;;;4.93;3.08;;;21.90;44.50;;;;;;5145395;27;20023;-42
2022/05/08 05:02:08;;;;;;;4.72;2.75;;;21.90;44.40;;;;;;5144389;27;20011;-40
2022/05/08 05:04:34;;;;;;;3.88;2.70;;;21.90;44.50;;;;;;5143887;27;20029;-40
2022/05/08 05:07:01;;;;;;;3.50;2.78;;;21.90;44.40;;;;;;5143224;27;20050;-40
2022/05/08 05:09:27;;;;;;;4.13;2.60;;;21.90;45.00;;;;;;5143970;27;20018;-40
2022/05/08 05:11:53;;;;;;;4.05;3.00;;;21.80;44.30;;;;;;5143224;27;20019;-39
2022/05/08 05:14:19;;;;;;;3.90;2.63;;;21.90;44.40;;;;;;5142951;27;20023;-40
2022/05/08 05:16:46;;;;;;;4.40;2.80;;;21.80;44.30;;;;;;5142332;27;20075;-43
2022/05/08 05:19:12;;;;;;;3.22;2.70;;;21.80;44.20;;;;;;5142495;27;20035;-41
2022/05/08 05:21:37;;;;;;;3.15;2.60;;;21.90;44.30;;;;;;5141733;27;20126;-39
2022/05/08 05:24:04;;;;;;;3.50;2.55;;;21.90;44.30;;;;;;5141142;27;20015;-40
2022/05/08 05:26:30;;;;;;;4.32;2.92;;;21.80;44.20;;;;;;5140318;27;20541;-42
2022/05/08 05:28:57;;;;;;;3.30;2.47;;;21.80;44.10;;;;;;5136370;27;20469;-38
2022/05/08 05:31:24;;;;;;;3.35;2.70;;;21.90;44.20;;;;;;5135682;27;20011;-38
2022/05/08 05:33:50;;;;;;;3.72;2.80;;;21.90;44.30;;;;;;5135195;27;20096;-38
2022/05/08 05:36:16;;;;;;;4.78;2.97;;;21.90;44.20;;;;;;5134787;27;20473;-38
2022/05/08 05:38:42;;;;;;;3.85;2.95;;;21.80;44.10;;;;;;5136154;27;20011;-38
2022/05/08 05:41:09;;;;;;;3.22;2.80;;;21.80;44.00;;;;;;5134611;27;20023;-38
2022/05/08 05:43:35;;;;;;;3.78;2.80;;;21.90;44.10;;;;;;5135503;27;20015;-39
2022/05/08 05:48:45;;;;;;;3.75;2.90;;;21.80;44.10;;;;;;5141320;27;20031;-39
2022/05/08 05:51:11;;;;;;;3.53;2.70;;;21.80;44.00;;;;;;5140570;27;20019;-42
2022/05/08 05:53:38;;;;;;;3.15;2.60;;;21.80;44.00;;;;;;5140160;27;20012;-39
2022/05/08 05:56:03;;;;;;;4.70;2.80;;;21.80;44.00;;;;;;5138315;27;20027;-39
2022/05/08 05:58:29;;;;;;;4.18;2.80;;;21.80;44.00;;;;;;5137804;27;20027;-41
2022/05/08 06:00:56;;;;;;;5.82;3.03;;;21.90;44.00;;;;;;5137391;27;20021;-38
2022/05/08 06:03:22;;;;;;;4.60;2.75;;;21.80;43.90;;;;;;5136272;27;20023;-39
2022/05/08 06:05:48;;;;;;;3.88;2.75;;;21.80;44.00;;;;;;5136998;27;20040;-39
2022/05/08 06:08:15;;;;;;;4.00;2.72;;;21.80;43.80;;;;;;5136906;27;20042;-40
2022/05/08 06:10:41;;;;;;;3.70;2.80;;;21.80;43.80;;;;;;5136683;27;20024;-40
2022/05/08 06:13:07;;;;;;;3.67;3.05;;;21.80;43.80;;;;;;5137606;27;20008;-39
2022/05/08 06:15:34;;;;;;;4.72;3.03;;;21.80;43.80;;;;;;5139291;27;20020;-40
2022/05/08 06:18:00;;;;;;;4.13;2.58;;;21.80;43.80;;;;;;5138836;27;20053;-40
2022/05/08 06:20:26;;;;;;;3.58;3.00;;;21.80;43.70;;;;;;5138123;27;20019;-39
2022/05/08 06:22:52;;;;;;;3.55;2.70;;;21.90;43.70;;;;;;5136427;27;20496;-40
2022/05/08 06:25:18;;;;;;;4.22;2.90;;;21.90;43.60;;;;;;5139187;27;20035;-39
2022/05/08 06:27:45;;;;;;;3.28;2.50;;;21.90;43.50;;;;;;5139003;27;20015;-39
2022/05/08 06:30:12;;;;;;;4.65;2.88;;;22.00;43.40;;;;;;5139500;27;20368;-40
2022/05/08 06:32:38;;;;;;;3.83;2.47;;;22.00;43.30;;;;;;5138321;27;20007;-39
2022/05/08 06:35:04;;;;;;;2.97;2.42;;;22.00;43.20;;;;;;5139016;27;20035;-39
2022/05/08 06:37:31;;;;;;;3.92;2.53;;;22.00;43.10;;;;;;5138285;27;20016;-42
2022/05/08 06:39:56;;;;;;;3.40;2.78;;;22.00;43.10;;;;;;5139511;27;20039;-39
2022/05/08 06:42:22;;;;;;;3.92;2.80;;;22.00;43.10;;;;;;5139629;27;20039;-39
2022/05/08 06:44:49;;;;;;;3.70;2.78;;;22.10;43.10;;;;;;5139207;27;20023;-39
2022/05/08 06:47:15;;;;;;;4.53;2.80;;;22.10;43.00;;;;;;5139235;27;20031;-41
2022/05/08 06:49:41;;;;;;;4.35;2.80;;;22.10;43.00;;;;;;5140343;27;20015;-39
2022/05/08 06:52:07;;;;;;;4.50;3.03;;;22.20;42.90;;;;;;5139704;27;20019;-39
2022/05/08 06:54:34;;;;;;;5.18;3.10;;;22.20;42.70;;;;;;5140353;27;20071;-40
2022/05/08 06:57:01;;;;;;;4.68;3.10;;;22.30;42.60;;;;;;5140529;27;20015;-42
2022/05/08 07:02:24;;;;;;;4.70;2.92;;;22.80;41.70;;;;;;5105715;27;20147;-41
2022/05/08 07:04:50;;;;;;;3.42;2.58;;;23.20;40.70;;;;;;5139547;27;20016;-40
2022/05/08 07:07:16;;;;;;;4.05;2.85;;;23.50;39.80;;;;;;5137716;27;20435;-39
2022/05/08 07:09:43;;;;;;;3.78;2.70;;;23.90;39.10;;;;;;5139039;27;20171;-42
2022/05/08 07:12:11;;;;;;;3.70;2.53;;;24.20;38.40;;;;;;5136838;27;20491;-39
2022/05/08 07:14:40;;;;;;;5.65;2.63;;;24.50;37.90;;;;;;5133807;27;20016;-38
2022/05/08 07:17:06;;;;;;;5.15;2.95;;;24.80;37.30;;;;;;5134185;27;20086;-38
2022/05/08 07:19:32;;;;;;;4.18;2.90;;;25.00;37.30;;;;;;5134096;27;20019;-38
2022/05/08 07:21:59;;;;;;;3.83;2.60;;;25.20;36.50;;;;;;5133791;27;20043;-39
2022/05/08 07:24:25;;;;;;;4.45;2.50;;;25.40;36.20;;;;;;5133984;28;20454;-38
2022/05/08 07:26:52;;;;;;;3.35;2.53;;;25.60;35.90;;;;;;5133838;28;20106;-38
2022/05/08 07:29:19;;;;;;;3.47;2.60;;;25.70;35.40;;;;;;5136742;28;20090;-44
2022/05/08 07:31:45;;;;;;;3.50;2.40;;;25.90;35.10;;;;;;5138484;27;20383;-45
2022/05/08 07:36:56;;;;;;;4.60;2.78;;;26.20;34.50;;;;;;5138404;28;20022;-43
2022/05/08 07:39:22;;;;;;;3.75;2.35;;;26.40;34.20;;;;;;5138258;27;20376;-43
2022/05/08 07:41:49;;;;;;;3.75;2.40;;;26.50;34.00;;;;;;5136810;28;20019;-44
2022/05/08 07:44:15;;;;;;;2.92;2.30;;;26.70;33.70;;;;;;5138067;27;20187;-42
2022/05/08 07:46:41;;;;;;;3.67;2.42;;;26.70;33.50;;;;;;5139000;27;20057;-44
2022/05/08 07:49:09;;;;;;;2.90;2.13;;;26.90;33.20;;;;;;5138077;28;20011;-43
2022/05/08 07:51:35;;;;;;;4.40;2.40;;;26.90;33.00;;;;;;5137890;27;20068;-41
2022/05/08 07:54:01;;;;;;;3.25;2.22;;;27.00;32.90;;;;;;5138205;28;20022;-41
2022/05/08 07:56:28;;;;;;;4.43;2.42;;;27.10;32.80;;;;;;5138743;28;20102;-43
2022/05/08 07:58:54;;;;;;;4.88;2.55;;;27.20;32.60;;;;;;5141484;27;20045;-45
2022/05/08 08:01:20;;;;;;;3.13;2.05;;;27.30;32.30;;;;;;5144356;27;20071;-42
2022/05/08 08:03:46;;;;;;;3.17;2.47;;;27.40;32.10;;;;;;5143865;27;20043;-46
2022/05/08 08:06:12;;;;;;;3.42;2.20;;;27.50;32.10;;;;;;5143760;27;20026;-45
2022/05/08 08:08:38;;;;;;;3.95;2.20;;;27.50;31.90;;;;;;5142683;27;20027;-44
2022/05/08 08:11:05;;;;;;;3.97;2.33;;;27.60;31.80;;;;;;5142308;27;20007;-41
2022/05/08 08:13:31;;;;;;;4.82;2.50;;;27.60;31.60;;;;;;5140703;27;20008;-41
2022/05/08 08:15:58;;;;;;;4.75;2.35;;;27.80;31.60;;;;;;5139773;27;20026;-43
2022/05/08 08:18:24;;;;;;;3.60;1.90;;;27.80;31.40;;;;;;5139770;27;20043;-43
2022/05/08 08:20:50;;;;;;;4.22;2.40;;;27.90;31.30;;;;;;5137447;27;20071;-41
2022/05/08 08:23:16;;;;;;;3.70;2.13;;;27.90;31.20;;;;;;5139337;27;20020;-42
2022/05/08 08:25:43;;;;;;;3.97;2.10;;;27.90;31.20;;;;;;5137770;27;20027;-42
2022/05/08 08:28:09;;;;;;;3.92;2.50;;;28.00;31.10;;;;;;5140005;27;20035;-43
2022/05/08 08:30:35;;;;;;;4.45;2.45;;;28.00;31.00;;;;;;5139972;27;20018;-39
2022/05/08 08:33:01;;;;;;;3.88;2.35;;;28.00;30.90;;;;;;5140275;27;20050;-39
2022/05/08 08:35:27;;;;;;;3.50;2.15;;;28.10;30.80;;;;;;5138914;27;20034;-39
2022/05/08 08:37:52;;;;;;;3.25;1.95;;;28.10;30.70;;;;;;5139924;27;20465;-39
2022/05/08 08:40:20;;;;;;;2.97;2.00;;;28.10;30.70;;;;;;5139109;27;20095;-40
2022/05/08 08:42:47;;;;;;;4.22;2.20;;;28.10;30.60;;;;;;5139296;27;20106;-41
2022/05/08 08:48:10;;;;;;;3.95;2.35;;;28.20;30.50;;;;;;5138652;27;20046;-38
2022/05/08 08:50:37;;;;;;;3.97;2.42;;;28.20;30.30;;;;;;5137040;27;20030;-37
2022/05/08 08:53:04;;;;;;;4.72;2.47;;;28.30;30.30;;;;;;5138239;27;20076;-38
2022/05/08 08:55:31;;;;;;;4.63;1.95;;;28.30;30.20;;;;;;5136649;27;20011;-37
2022/05/08 08:57:57;;;;;;;3.60;2.53;;;28.30;30.10;;;;;;5139008;27;20015;-37
2022/05/08 09:00:24;;;;;;;3.40;2.10;;;28.30;30.10;;;;;;5138016;27;20019;-38
2022/05/08 09:02:55;;;;;;;4.00;1.92;;;28.30;30.10;;;;;;5138404;27;20015;-38
2022/05/08 09:05:21;;;;;;;4.00;2.20;;;28.30;30.10;;;;;;5138387;27;20015;-37
2022/05/08 09:07:48;;;;;;;3.58;2.10;;;28.30;30.00;;;;;;5139116;27;20012;-37
2022/05/08 09:10:21;;;;;;;3.35;1.95;;;28.30;30.00;;;;;;5139684;27;20035;-37
2022/05/08 09:12:54;;;;;;;3.78;2.10;;;28.30;30.00;;;;;;5140779;27;20034;-42
2022/05/08 09:15:20;;;;;;;4.80;2.05;;;28.30;30.00;;;;;;5141268;27;20015;-40
2022/05/08 09:17:50;;;;;;;5.32;2.42;;;28.30;30.00;;;;;;5141334;27;20087;-38
2022/05/08 09:20:29;;;;;;;3.65;2.17;;;28.30;29.90;;;;;;5140926;27;20030;-38
2022/05/08 09:23:20;;;;;;;4.13;2.03;;;28.30;30.00;;;;;;5099769;28;20028;-41
2022/05/08 09:25:59;;;;;;;3.55;2.28;;;28.30;30.00;;;;;;5099073;28;20024;-39
2022/05/08 09:28:28;;;;;;;4.03;2.10;;;28.30;30.00;;;;;;5100955;28;20170;-41
2022/05/08 09:31:04;;;;;;;3.92;1.85;;;28.30;30.00;;;;;;5098545;28;20008;-41
2022/05/08 09:33:44;;;;;;;5.95;2.38;;;28.20;29.90;;;;;;5098546;28;20481;-41
2022/05/08 09:36:12;;;;;;;4.55;2.25;;;28.20;29.90;;;;;;5097739;28;20016;-40
2022/05/08 09:38:50;;;;;;;5.10;2.17;;;28.20;29.90;;;;;;5097310;28;20049;-41
2022/05/08 09:41:21;;;;;;;4.43;2.17;;;28.20;29.90;;;;;;5098878;28;20026;-40
2022/05/08 09:43:47;;;;;;;4.10;2.25;;;28.20;29.90;;;;;;5099172;28;20017;-41
2022/05/08 09:46:13;;;;;;;4.40;1.88;;;28.20;29.90;;;;;;5097235;28;20028;-41
2022/05/08 09:48:40;;;;;;;4.15;2.15;;;28.20;29.90;;;;;;5097233;28;20009;-40
2022/05/08 09:51:10;;;;;;;5.53;2.30;;;28.20;29.90;;;;;;5097918;28;20019;-45
2022/05/08 09:53:37;;;;;;;5.28;2.30;;;28.10;29.80;;;;;;5097250;28;20013;-40
2022/05/08 09:56:05;;;;;;;3.17;1.80;;;28.10;29.90;;;;;;5095556;28;20020;-40
2022/05/08 09:58:32;;;;;;;3.85;1.90;;;28.10;29.90;;;;;;5098021;28;20027;-40
2022/05/08 10:00:58;;;;;;;4.72;2.17;;;28.10;29.90;;;;;;5098783;28;20091;-41
2022/05/08 10:03:24;;;;;;;6.30;2.28;;;28.00;29.90;;;;;;5099747;28;20016;-39
2022/05/08 10:05:50;;;;;;;4.95;2.35;;;28.00;29.90;;;;;;5099590;28;20063;-40
2022/05/08 10:08:24;;;;;;;3.63;2.08;;;28.00;29.90;;;;;;5099094;28;20396;-40
2022/05/08 10:14:04;;;;;;;4.82;2.17;;;27.90;29.90;;;;;;5100685;28;20028;-41
2022/05/08 10:16:48;;;;;;;5.32;2.22;;;27.80;29.90;;;;;;5099385;28;20397;-40
2022/05/08 10:19:19;;;;;;;3.92;2.00;;;27.80;29.80;;;;;;5099164;28;20055;-40
2022/05/08 10:22:02;;;;;;;4.43;2.00;;;27.80;29.90;;;;;;5123379;27;20047;-39
2022/05/08 10:24:40;;;;;;;3.50;1.80;;;27.70;29.90;;;;;;5140199;27;20541;-40
2022/05/08 10:27:10;;;;;;;4.57;2.05;;;27.70;30.00;;;;;;5138439;27;20032;-40
2022/05/08 10:29:38;;;;;;;4.15;2.08;;;27.60;30.00;;;;;;5137070;27;20035;-39
2022/05/08 10:32:10;;;;;;;3.50;1.77;;;27.60;29.90;;;;;;5135757;27;20031;-39
2022/05/08 10:34:39;;;;;;;3.95;1.90;;;27.60;29.90;;;;;;5136940;27;20015;-39
2022/05/08 10:37:13;;;;;;;4.30;1.98;;;27.50;30.00;;;;;;5137460;27;20473;-39
2022/05/08 10:39:48;;;;;;;4.10;1.90;;;27.50;29.90;;;;;;5136481;27;20054;-39
2022/05/08 10:42:33;;;;;;;4.88;2.15;;;27.40;30.30;;;;;;5138069;27;20027;-41
2022/05/08 10:45:00;;;;;;;4.57;1.90;;;27.30;29.90;;;;;;5141095;27;20019;-39
2022/05/08 10:47:33;;;;;;;6.18;2.15;;;27.30;30.00;;;;;;5139449;27;20057;-42
2022/05/08 10:50:05;;;;;;;5.80;2.10;;;27.20;30.00;;;;;;5140123;27;20596;-40
2022/05/08 10:52:31;;;;;;;4.22;2.13;;;27.20;30.00;;;;;;5140692;27;20043;-39
2022/05/08 10:54:58;;;;;;;4.35;1.80;;;27.10;30.10;;;;;;5141298;27;20038;-41
2022/05/08 10:57:36;;;;;;;3.95;1.98;;;27.10;30.00;;;;;;5140769;27;20016;-41
2022/05/08 11:00:04;;;;;;;3.40;1.80;;;27.00;30.10;;;;;;5139852;27;20015;-39
2022/05/08 11:02:40;;;;;;;4.82;1.83;;;26.90;30.10;;;;;;5140002;27;20355;-41
2022/05/08 11:05:10;;;;;;;4.50;2.00;;;26.80;30.20;;;;;;5138432;27;20018;-43
2022/05/08 11:07:39;;;;;;;3.85;1.80;;;26.80;30.20;;;;;;5140317;27;20026;-41
2022/05/08 11:10:15;;;;;;;5.15;2.22;;;26.70;30.30;;;;;;5141248;27;20024;-42
2022/05/08 11:13:06;;;;;;;4.90;1.85;;;26.60;30.40;;;;;;5141094;27;20050;-38
2022/05/08 11:15:38;;;;;;;4.20;2.00;;;26.50;30.30;;;;;;5141301;27;20505;-38
2022/05/08 11:18:15;;;;;;;4.95;1.92;;;26.50;30.40;;;;;;5141265;27;20007;-41
2022/05/08 11:20:57;;;;;;;3.65;1.92;;;26.40;30.60;;;;;;5141763;27;20043;-38
2022/05/08 11:23:26;;;;;;;5.25;2.35;;;26.30;30.50;;;;;;5140456;28;20586;-39
2022/05/08 11:25:53;;;;;;;3.95;1.63;;;26.20;30.50;;;;;;5141365;27;20483;-38
2022/05/08 11:28:23;;;;;;;3.70;1.90;;;26.20;30.50;;;;;;5140161;28;20008;-39
2022/05/08 11:30:50;;;;;;;3.95;1.60;;;26.10;30.50;;;;;;5140012;27;20459;-37
2022/05/08 11:36:05;;;;;;;4.38;1.85;;;26.00;30.70;;;;;;5145180;27;20088;-38
2022/05/08 11:38:45;;;;;;;5.07;1.65;;;25.90;30.80;;;;;;5145422;27;20064;-36
2022/05/08 11:41:15;;;;;;;3.97;1.60;;;25.80;30.80;;;;;;5146218;27;20054;-37
2022/05/08 11:43:42;;;;;;;6.05;2.00;;;25.80;30.80;;;;;;5144171;27;20090;-38
2022/05/08 11:46:08;;;;;;;4.22;1.83;;;25.80;31.00;;;;;;5144293;27;20025;-37
2022/05/08 11:48:40;;;;;;;3.92;1.90;;;25.70;30.90;;;;;;5143599;27;20063;-38
2022/05/08 11:51:07;;;;;;;4.50;1.70;;;25.60;30.90;;;;;;5143739;27;20019;-39
2022/05/08 11:53:43;;;;;;;5.35;1.80;;;25.50;31.00;;;;;;5142031;27;20052;-37
2022/05/08 11:56:29;;;;;;;4.05;1.67;;;25.50;31.10;;;;;;5144437;27;20030;-38
2022/05/08 11:58:56;;;;;;;5.05;1.70;;;25.40;31.20;;;;;;5142135;27;20106;-39
2022/05/08 12:01:29;;;;;;;3.80;1.50;;;25.40;31.20;;;;;;5141119;27;20023;-37
2022/05/08 12:03:56;;;;;;;3.92;1.70;;;25.30;31.10;;;;;;5140762;27;20015;-36
2022/05/08 12:06:22;;;;;;;3.38;1.70;;;25.30;31.10;;;;;;5138451;27;20024;-37
2022/05/08 12:08:48;;;;;;;4.43;1.90;;;25.20;31.00;;;;;;5140116;27;20476;-37
2022/05/08 12:11:28;;;;;;;3.38;1.42;;;25.20;31.10;;;;;;5138864;27;20103;-37
2022/05/08 12:14:07;;;;;;;4.88;1.88;;;25.20;31.30;;;;;;5140357;27;20015;-38
2022/05/08 12:16:34;;;;;;;3.75;1.60;;;25.10;31.30;;;;;;5141967;27;20430;-38
2022/05/08 12:19:16;;;;;;;4.88;1.65;;;25.10;31.20;;;;;;5142038;27;20007;-41
2022/05/08 12:21:48;;;;;;;4.50;1.60;;;25.00;31.30;;;;;;5125275;27;20053;-38
2022/05/08 12:24:15;;;;;;;4.82;2.28;;;25.00;31.30;;;;;;5142319;27;20079;-38
2022/05/08 12:26:42;;;;;;;4.13;1.67;;;25.00;31.50;;;;;;5142370;27;20038;-38
2022/05/08 12:29:18;;;;;;;4.78;1.98;;;24.90;31.40;;;;;;5142145;27;20094;-38
2022/05/08 12:31:44;;;;;;;5.60;1.73;;;24.90;31.20;;;;;;5141179;27;20084;-38
2022/05/08 12:34:11;;;;;;;4.53;1.70;;;24.90;31.20;;;;;;5142277;27;20015;-38
2022/05/08 12:36:40;;;;;;;4.70;1.65;;;24.90;31.10;;;;;;5142931;27;20019;-37
2022/05/08 12:39:10;;;;;;;3.65;1.58;;;24.90;31.30;;;;;;5143078;27;20011;-38
2022/05/08 12:41:37;;;;;;;4.10;1.70;;;24.80;31.30;;;;;;5142240;27;20480;-38
2022/05/08 12:44:03;;;;;;;3.95;1.48;;;24.80;31.20;;;;;;5139088;27;20015;-41
2022/05/08 12:46:29;;;;;;;4.72;1.58;;;24.80;31.20;;;;;;5137170;27;20031;-37
2022/05/08 12:49:01;;;;;;;5.38;2.22;;;24.80;31.30;;;;;;5139008;27;20018;-38
2022/05/08 12:51:28;;;;;;;4.38;1.77;;;24.70;31.20;;;;;;5138179;27;20094;-38
2022/05/08 12:53:54;;;;;;;3.63;1.40;;;24.70;31.30;;;;;;5139115;27;20445;-43
2022/05/08 12:56:20;;;;;;;4.38;1.50;;;24.70;31.30;;;;;;5138683;27;20023;-42
2022/05/08 13:01:31;;;;;;;5.57;1.83;;;24.70;31.00;;;;;;5138484;27;20027;-38
2022/05/08 13:03:57;;;;;;;6.55;1.85;;;24.70;31.20;;;;;;5137386;27;20011;-38
2022/05/08 13:06:22;;;;;;;3.95;1.60;;;24.60;31.20;;;;;;5137579;27;20054;-39
2022/05/08 13:08:48;;;;;;;3.50;1.42;;;24.60;31.00;;;;;;5137622;27;20081;-38
2022/05/08 13:11:14;;;;;;;3.65;1.63;;;24.60;31.20;;;;;;5138867;27;20083;-39
2022/05/08 13:13:41;;;;;;;2.35;1.10;;;24.50;31.10;;;;;;5138785;27;20597;-40
2022/05/08 13:16:11;;;;;;;4.00;1.65;;;24.60;31.20;;;;;;5138136;27;20071;-38
2022/05/08 13:18:39;;;;;;;3.70;1.40;;;24.50;31.10;;;;;;5139730;27;20485;-36
2022/05/08 13:21:05;;;;;;;4.38;1.50;;;24.60;31.10;;;;;;5137643;27;20060;-37